sensor_id;sensor_type;location;lat;lon;timestamp;P1;durP1;ratioP1;P2;durP2;ratioP2
75628;SDS011;64213;46.452;16.994;2024-01-10T00:00:14;19.65;;;6.82;;
75628;SDS011;64213;46.452;16.994;2024-01-10T00:03:16;17.45;;;6.07;;
75628;SDS011;64213;46.452;16.994;2024-01-10T00:06:19;14.57;;;6.28;;
75628;SDS011;64213;46.452;16.994;2024-01-10T00:09:21;14.80;;;7.18;;
75628;SDS011;64213;46.452;16.994;2024-01-10T00:12:25;17.97;;;6.93;;
75628;SDS011;64213;46.452;16.994;2024-01-10T00:15:27;21.95;;;7.68;;
75628;SDS011;64213;46.452;16.994;2024-01-10T00:18:30;18.40;;;4.20;;
75628;SDS011;64213;46.452;16.994;2024-01-10T00:21:32;14.43;;;5.03;;
75628;SDS011;64213;46.452;16.994;2024-01-10T00:24:36;24.27;;;9.47;;
75628;SDS011;64213;46.452;16.994;2024-01-10T00:27:39;15.05;;;6.00;;
75628;SDS011;64213;46.452;16.994;2024-01-10T00:30:41;12.63;;;4.75;;
75628;SDS011;64213;46.452;16.994;2024-01-10T00:33:44;12.48;;;3.60;;
75628;SDS011;64213;46.452;16.994;2024-01-10T00:36:47;23.47;;;9.50;;
75628;SDS011;64213;46.452;16.994;2024-01-10T00:39:49;16.98;;;7.10;;
75628;SDS011;64213;46.452;16.994;2024-01-10T00:42:52;20.45;;;7.35;;
75628;SDS011;64213;46.452;16.994;2024-01-10T00:45:58;13.85;;;4.87;;
75628;SDS011;64213;46.452;16.994;2024-01-10T00:49:00;17.13;;;4.80;;
75628;SDS011;64213;46.452;16.994;2024-01-10T00:52:03;11.30;;;4.55;;
75628;SDS011;64213;46.452;16.994;2024-01-10T00:55:06;12.55;;;5.30;;
75628;SDS011;64213;46.452;16.994;2024-01-10T00:58:10;8.15;;;2.78;;
75628;SDS011;64213;46.452;16.994;2024-01-10T01:01:14;12.73;;;4.70;;
75628;SDS011;64213;46.452;16.994;2024-01-10T01:04:18;8.27;;;4.22;;
75628;SDS011;64213;46.452;16.994;2024-01-10T01:07:21;16.67;;;6.28;;
75628;SDS011;64213;46.452;16.994;2024-01-10T01:10:24;12.88;;;4.87;;
75628;SDS011;64213;46.452;16.994;2024-01-10T01:13:27;15.63;;;5.87;;
75628;SDS011;64213;46.452;16.994;2024-01-10T01:16:31;9.20;;;3.80;;
75628;SDS011;64213;46.452;16.994;2024-01-10T01:19:34;14.50;;;5.45;;
75628;SDS011;64213;46.452;16.994;2024-01-10T01:22:37;10.88;;;4.90;;
75628;SDS011;64213;46.452;16.994;2024-01-10T01:25:41;11.73;;;5.45;;
75628;SDS011;64213;46.452;16.994;2024-01-10T01:28:43;15.13;;;5.87;;
75628;SDS011;64213;46.452;16.994;2024-01-10T01:31:47;10.45;;;4.43;;
75628;SDS011;64213;46.452;16.994;2024-01-10T01:34:49;12.53;;;5.43;;
75628;SDS011;64213;46.452;16.994;2024-01-10T01:37:53;12.18;;;5.30;;
75628;SDS011;64213;46.452;16.994;2024-01-10T01:40:56;12.80;;;3.47;;
75628;SDS011;64213;46.452;16.994;2024-01-10T01:44:01;8.00;;;5.07;;
75628;SDS011;64213;46.452;16.994;2024-01-10T01:47:04;9.50;;;3.80;;
75628;SDS011;64213;46.452;16.994;2024-01-10T01:50:09;12.45;;;5.10;;
75628;SDS011;64213;46.452;16.994;2024-01-10T01:53:14;14.00;;;5.12;;
75628;SDS011;64213;46.452;16.994;2024-01-10T01:56:18;11.63;;;3.47;;
75628;SDS011;64213;46.452;16.994;2024-01-10T01:59:22;12.57;;;5.70;;
75628;SDS011;64213;46.452;16.994;2024-01-10T02:02:26;15.52;;;7.00;;
75628;SDS011;64213;46.452;16.994;2024-01-10T02:05:30;9.48;;;3.78;;
75628;SDS011;64213;46.452;16.994;2024-01-10T02:08:33;14.07;;;5.93;;
75628;SDS011;64213;46.452;16.994;2024-01-10T02:11:36;6.28;;;3.03;;
75628;SDS011;64213;46.452;16.994;2024-01-10T02:14:39;12.60;;;5.80;;
75628;SDS011;64213;46.452;16.994;2024-01-10T02:17:41;9.13;;;3.57;;
75628;SDS011;64213;46.452;16.994;2024-01-10T02:20:44;11.27;;;5.55;;
75628;SDS011;64213;46.452;16.994;2024-01-10T02:23:48;7.80;;;3.83;;
75628;SDS011;64213;46.452;16.994;2024-01-10T02:26:50;13.90;;;4.83;;
75628;SDS011;64213;46.452;16.994;2024-01-10T02:29:53;13.07;;;3.67;;
75628;SDS011;64213;46.452;16.994;2024-01-10T02:32:57;11.55;;;5.18;;
75628;SDS011;64213;46.452;16.994;2024-01-10T02:36:00;14.20;;;5.35;;
75628;SDS011;64213;46.452;16.994;2024-01-10T02:39:02;11.30;;;4.47;;
75628;SDS011;64213;46.452;16.994;2024-01-10T02:42:05;15.52;;;6.20;;
75628;SDS011;64213;46.452;16.994;2024-01-10T02:45:07;9.70;;;4.22;;
75628;SDS011;64213;46.452;16.994;2024-01-10T02:48:10;15.60;;;5.47;;
75628;SDS011;64213;46.452;16.994;2024-01-10T02:51:13;22.40;;;7.22;;
75628;SDS011;64213;46.452;16.994;2024-01-10T02:54:16;21.35;;;7.28;;
75628;SDS011;64213;46.452;16.994;2024-01-10T02:57:18;3.43;;;1.13;;
75628;SDS011;64213;46.452;16.994;2024-01-10T03:00:20;17.12;;;4.28;;
75628;SDS011;64213;46.452;16.994;2024-01-10T03:03:23;12.75;;;5.65;;
75628;SDS011;64213;46.452;16.994;2024-01-10T03:06:25;12.98;;;3.40;;
75628;SDS011;64213;46.452;16.994;2024-01-10T03:09:28;13.82;;;5.18;;
75628;SDS011;64213;46.452;16.994;2024-01-10T03:12:30;8.20;;;4.15;;
75628;SDS011;64213;46.452;16.994;2024-01-10T03:15:33;16.25;;;6.15;;
75628;SDS011;64213;46.452;16.994;2024-01-10T03:18:35;18.40;;;6.80;;
75628;SDS011;64213;46.452;16.994;2024-01-10T03:21:38;4.65;;;1.08;;
75628;SDS011;64213;46.452;16.994;2024-01-10T03:24:40;12.43;;;5.22;;
75628;SDS011;64213;46.452;16.994;2024-01-10T03:27:43;17.53;;;5.33;;
75628;SDS011;64213;46.452;16.994;2024-01-10T03:30:46;20.98;;;5.00;;
75628;SDS011;64213;46.452;16.994;2024-01-10T03:33:48;10.10;;;4.80;;
75628;SDS011;64213;46.452;16.994;2024-01-10T03:36:52;6.07;;;3.10;;
75628;SDS011;64213;46.452;16.994;2024-01-10T03:39:55;27.62;;;7.57;;
75628;SDS011;64213;46.452;16.994;2024-01-10T03:42:57;9.57;;;3.05;;
75628;SDS011;64213;46.452;16.994;2024-01-10T03:46:00;14.35;;;5.68;;
75628;SDS011;64213;46.452;16.994;2024-01-10T03:49:03;4.93;;;0.93;;
75628;SDS011;64213;46.452;16.994;2024-01-10T03:52:05;6.05;;;2.22;;
75628;SDS011;64213;46.452;16.994;2024-01-10T03:55:07;8.65;;;3.05;;
75628;SDS011;64213;46.452;16.994;2024-01-10T03:58:11;8.47;;;2.87;;
75628;SDS011;64213;46.452;16.994;2024-01-10T04:01:13;11.73;;;6.45;;
75628;SDS011;64213;46.452;16.994;2024-01-10T04:04:15;12.73;;;4.62;;
75628;SDS011;64213;46.452;16.994;2024-01-10T04:07:18;14.45;;;5.22;;
75628;SDS011;64213;46.452;16.994;2024-01-10T04:10:21;9.82;;;4.40;;
75628;SDS011;64213;46.452;16.994;2024-01-10T04:13:26;10.40;;;3.60;;
75628;SDS011;64213;46.452;16.994;2024-01-10T04:16:57;12.52;;;4.10;;
75628;SDS011;64213;46.452;16.994;2024-01-10T04:20:00;16.30;;;5.03;;
75628;SDS011;64213;46.452;16.994;2024-01-10T04:23:04;14.30;;;6.40;;
75628;SDS011;64213;46.452;16.994;2024-01-10T04:26:09;15.88;;;5.75;;
75628;SDS011;64213;46.452;16.994;2024-01-10T04:29:12;12.37;;;6.33;;
75628;SDS011;64213;46.452;16.994;2024-01-10T04:32:15;14.82;;;5.50;;
75628;SDS011;64213;46.452;16.994;2024-01-10T04:35:19;16.15;;;4.90;;
75628;SDS011;64213;46.452;16.994;2024-01-10T04:38:24;12.60;;;4.78;;
75628;SDS011;64213;46.452;16.994;2024-01-10T04:41:29;10.30;;;4.32;;
75628;SDS011;64213;46.452;16.994;2024-01-10T04:44:32;14.38;;;5.20;;
75628;SDS011;64213;46.452;16.994;2024-01-10T04:47:34;7.32;;;2.25;;
75628;SDS011;64213;46.452;16.994;2024-01-10T04:50:38;12.07;;;3.03;;
75628;SDS011;64213;46.452;16.994;2024-01-10T04:53:43;11.02;;;4.07;;
75628;SDS011;64213;46.452;16.994;2024-01-10T04:56:48;16.33;;;6.32;;
75628;SDS011;64213;46.452;16.994;2024-01-10T04:59:56;10.97;;;4.80;;
75628;SDS011;64213;46.452;16.994;2024-01-10T05:02:59;17.42;;;5.15;;
75628;SDS011;64213;46.452;16.994;2024-01-10T05:06:02;11.75;;;4.40;;
75628;SDS011;64213;46.452;16.994;2024-01-10T05:09:05;7.07;;;2.70;;
75628;SDS011;64213;46.452;16.994;2024-01-10T05:12:09;12.00;;;5.05;;
75628;SDS011;64213;46.452;16.994;2024-01-10T05:15:11;11.43;;;4.15;;
75628;SDS011;64213;46.452;16.994;2024-01-10T05:18:15;13.23;;;4.82;;
75628;SDS011;64213;46.452;16.994;2024-01-10T05:21:18;8.10;;;3.77;;
75628;SDS011;64213;46.452;16.994;2024-01-10T05:24:22;10.32;;;4.25;;
75628;SDS011;64213;46.452;16.994;2024-01-10T05:27:27;17.52;;;4.72;;
75628;SDS011;64213;46.452;16.994;2024-01-10T05:30:29;10.70;;;3.33;;
75628;SDS011;64213;46.452;16.994;2024-01-10T05:33:34;10.98;;;3.55;;
75628;SDS011;64213;46.452;16.994;2024-01-10T05:36:37;9.20;;;3.20;;
75628;SDS011;64213;46.452;16.994;2024-01-10T05:39:42;8.63;;;3.70;;
75628;SDS011;64213;46.452;16.994;2024-01-10T05:42:49;13.88;;;4.40;;
75628;SDS011;64213;46.452;16.994;2024-01-10T05:45:51;7.53;;;3.10;;
75628;SDS011;64213;46.452;16.994;2024-01-10T05:48:54;4.12;;;1.67;;
75628;SDS011;64213;46.452;16.994;2024-01-10T05:51:57;13.63;;;4.90;;
75628;SDS011;64213;46.452;16.994;2024-01-10T05:55:00;12.52;;;5.07;;
75628;SDS011;64213;46.452;16.994;2024-01-10T05:58:05;11.23;;;3.70;;
75628;SDS011;64213;46.452;16.994;2024-01-10T06:01:07;13.37;;;4.60;;
75628;SDS011;64213;46.452;16.994;2024-01-10T06:04:13;19.52;;;5.47;;
75628;SDS011;64213;46.452;16.994;2024-01-10T06:07:16;8.68;;;4.25;;
75628;SDS011;64213;46.452;16.994;2024-01-10T06:10:19;12.80;;;6.05;;
75628;SDS011;64213;46.452;16.994;2024-01-10T06:13:21;13.90;;;4.30;;
75628;SDS011;64213;46.452;16.994;2024-01-10T06:16:24;18.48;;;5.28;;
75628;SDS011;64213;46.452;16.994;2024-01-10T06:19:27;10.32;;;3.67;;
75628;SDS011;64213;46.452;16.994;2024-01-10T06:22:29;16.53;;;4.33;;
75628;SDS011;64213;46.452;16.994;2024-01-10T06:25:32;11.48;;;4.57;;
75628;SDS011;64213;46.452;16.994;2024-01-10T06:28:35;1.27;;;0.55;;
75628;SDS011;64213;46.452;16.994;2024-01-10T06:31:37;17.47;;;7.33;;
75628;SDS011;64213;46.452;16.994;2024-01-10T06:34:40;19.50;;;7.35;;
75628;SDS011;64213;46.452;16.994;2024-01-10T06:37:43;14.32;;;6.30;;
75628;SDS011;64213;46.452;16.994;2024-01-10T06:40:46;17.87;;;6.10;;
75628;SDS011;64213;46.452;16.994;2024-01-10T06:43:51;32.92;;;7.05;;
75628;SDS011;64213;46.452;16.994;2024-01-10T06:46:57;10.98;;;5.07;;
75628;SDS011;64213;46.452;16.994;2024-01-10T06:50:00;12.57;;;5.68;;
75628;SDS011;64213;46.452;16.994;2024-01-10T06:53:02;16.13;;;8.40;;
75628;SDS011;64213;46.452;16.994;2024-01-10T06:56:06;12.18;;;6.07;;
75628;SDS011;64213;46.452;16.994;2024-01-10T06:59:09;14.95;;;4.35;;
75628;SDS011;64213;46.452;16.994;2024-01-10T07:02:12;12.13;;;5.03;;
75628;SDS011;64213;46.452;16.994;2024-01-10T07:05:14;17.02;;;5.60;;
75628;SDS011;64213;46.452;16.994;2024-01-10T07:08:17;14.55;;;5.75;;
75628;SDS011;64213;46.452;16.994;2024-01-10T07:11:20;16.73;;;5.90;;
75628;SDS011;64213;46.452;16.994;2024-01-10T07:14:22;16.25;;;5.72;;
75628;SDS011;64213;46.452;16.994;2024-01-10T07:17:25;17.27;;;6.25;;
75628;SDS011;64213;46.452;16.994;2024-01-10T07:20:28;19.08;;;8.63;;
75628;SDS011;64213;46.452;16.994;2024-01-10T07:23:30;21.67;;;8.63;;
75628;SDS011;64213;46.452;16.994;2024-01-10T07:26:34;14.77;;;6.15;;
75628;SDS011;64213;46.452;16.994;2024-01-10T07:29:37;19.65;;;8.07;;
75628;SDS011;64213;46.452;16.994;2024-01-10T07:32:42;14.03;;;7.07;;
75628;SDS011;64213;46.452;16.994;2024-01-10T07:35:45;19.70;;;6.57;;
75628;SDS011;64213;46.452;16.994;2024-01-10T07:38:48;20.08;;;8.75;;
75628;SDS011;64213;46.452;16.994;2024-01-10T07:41:50;20.08;;;9.65;;
75628;SDS011;64213;46.452;16.994;2024-01-10T07:44:54;11.48;;;5.47;;
75628;SDS011;64213;46.452;16.994;2024-01-10T07:47:56;20.95;;;7.20;;
75628;SDS011;64213;46.452;16.994;2024-01-10T07:50:59;23.20;;;8.63;;
75628;SDS011;64213;46.452;16.994;2024-01-10T07:54:02;23.50;;;9.70;;
75628;SDS011;64213;46.452;16.994;2024-01-10T07:57:04;16.00;;;7.03;;
75628;SDS011;64213;46.452;16.994;2024-01-10T08:00:08;16.33;;;4.62;;
75628;SDS011;64213;46.452;16.994;2024-01-10T08:03:13;28.03;;;7.07;;
75628;SDS011;64213;46.452;16.994;2024-01-10T08:06:16;22.85;;;7.40;;
75628;SDS011;64213;46.452;16.994;2024-01-10T08:09:30;19.65;;;6.47;;
75628;SDS011;64213;46.452;16.994;2024-01-10T08:12:32;14.52;;;6.05;;
75628;SDS011;64213;46.452;16.994;2024-01-10T08:15:35;4.90;;;3.30;;
75628;SDS011;64213;46.452;16.994;2024-01-10T08:18:37;13.95;;;6.32;;
75628;SDS011;64213;46.452;16.994;2024-01-10T08:21:40;22.35;;;10.43;;
75628;SDS011;64213;46.452;16.994;2024-01-10T08:24:42;26.00;;;8.77;;
75628;SDS011;64213;46.452;16.994;2024-01-10T08:27:47;19.42;;;8.40;;
75628;SDS011;64213;46.452;16.994;2024-01-10T08:30:50;16.48;;;6.53;;
75628;SDS011;64213;46.452;16.994;2024-01-10T08:33:54;7.78;;;3.97;;
75628;SDS011;64213;46.452;16.994;2024-01-10T08:36:56;23.40;;;10.80;;
75628;SDS011;64213;46.452;16.994;2024-01-10T08:39:59;35.65;;;13.60;;
75628;SDS011;64213;46.452;16.994;2024-01-10T08:43:03;21.23;;;11.10;;
75628;SDS011;64213;46.452;16.994;2024-01-10T08:46:06;34.13;;;13.90;;
75628;SDS011;64213;46.452;16.994;2024-01-10T08:49:08;32.40;;;14.90;;
75628;SDS011;64213;46.452;16.994;2024-01-10T08:52:11;31.40;;;12.20;;
75628;SDS011;64213;46.452;16.994;2024-01-10T08:55:15;36.10;;;13.23;;
75628;SDS011;64213;46.452;16.994;2024-01-10T08:58:17;39.38;;;13.60;;
75628;SDS011;64213;46.452;16.994;2024-01-10T09:01:20;36.30;;;14.00;;
75628;SDS011;64213;46.452;16.994;2024-01-10T09:04:22;21.85;;;8.77;;
75628;SDS011;64213;46.452;16.994;2024-01-10T09:07:25;33.70;;;13.83;;
75628;SDS011;64213;46.452;16.994;2024-01-10T09:10:27;39.58;;;14.73;;
75628;SDS011;64213;46.452;16.994;2024-01-10T09:13:31;36.10;;;14.27;;
75628;SDS011;64213;46.452;16.994;2024-01-10T09:16:33;25.40;;;10.43;;
75628;SDS011;64213;46.452;16.994;2024-01-10T09:19:36;29.50;;;12.95;;
75628;SDS011;64213;46.452;16.994;2024-01-10T09:22:39;44.40;;;14.83;;
75628;SDS011;64213;46.452;16.994;2024-01-10T09:25:41;13.90;;;7.70;;
75628;SDS011;64213;46.452;16.994;2024-01-10T09:28:43;28.02;;;11.48;;
75628;SDS011;64213;46.452;16.994;2024-01-10T09:31:46;28.10;;;14.02;;
75628;SDS011;64213;46.452;16.994;2024-01-10T09:34:48;29.45;;;14.50;;
75628;SDS011;64213;46.452;16.994;2024-01-10T09:37:50;19.20;;;8.73;;
75628;SDS011;64213;46.452;16.994;2024-01-10T09:40:53;22.80;;;10.73;;
75628;SDS011;64213;46.452;16.994;2024-01-10T09:44:05;21.75;;;9.73;;
75628;SDS011;64213;46.452;16.994;2024-01-10T09:47:07;16.80;;;6.25;;
75628;SDS011;64213;46.452;16.994;2024-01-10T09:50:11;17.90;;;6.43;;
75628;SDS011;64213;46.452;16.994;2024-01-10T09:53:16;23.00;;;6.80;;
75628;SDS011;64213;46.452;16.994;2024-01-10T09:56:26;12.93;;;5.00;;
75628;SDS011;64213;46.452;16.994;2024-01-10T09:59:28;12.65;;;4.60;;
75628;SDS011;64213;46.452;16.994;2024-01-10T10:02:31;17.42;;;7.25;;
75628;SDS011;64213;46.452;16.994;2024-01-10T10:05:34;13.30;;;3.58;;
75628;SDS011;64213;46.452;16.994;2024-01-10T10:08:37;20.07;;;5.83;;
75628;SDS011;64213;46.452;16.994;2024-01-10T10:11:40;21.23;;;6.85;;
75628;SDS011;64213;46.452;16.994;2024-01-10T10:14:43;11.43;;;5.53;;
75628;SDS011;64213;46.452;16.994;2024-01-10T10:17:45;11.98;;;4.40;;
75628;SDS011;64213;46.452;16.994;2024-01-10T10:21:03;19.65;;;6.93;;
75628;SDS011;64213;46.452;16.994;2024-01-10T10:24:12;12.13;;;4.33;;
75628;SDS011;64213;46.452;16.994;2024-01-10T10:27:19;7.68;;;3.15;;
75628;SDS011;64213;46.452;16.994;2024-01-10T10:30:22;19.55;;;6.45;;
75628;SDS011;64213;46.452;16.994;2024-01-10T10:33:24;11.70;;;4.10;;
75628;SDS011;64213;46.452;16.994;2024-01-10T10:36:27;11.80;;;5.10;;
75628;SDS011;64213;46.452;16.994;2024-01-10T10:39:33;9.63;;;3.57;;
75628;SDS011;64213;46.452;16.994;2024-01-10T10:42:35;15.07;;;5.82;;
75628;SDS011;64213;46.452;16.994;2024-01-10T10:45:43;17.50;;;6.28;;
75628;SDS011;64213;46.452;16.994;2024-01-10T10:48:50;19.42;;;8.05;;
75628;SDS011;64213;46.452;16.994;2024-01-10T10:51:53;21.85;;;7.68;;
75628;SDS011;64213;46.452;16.994;2024-01-10T10:54:59;21.60;;;7.20;;
75628;SDS011;64213;46.452;16.994;2024-01-10T10:58:02;21.00;;;7.90;;
75628;SDS011;64213;46.452;16.994;2024-01-10T11:01:13;21.87;;;8.20;;
75628;SDS011;64213;46.452;16.994;2024-01-10T11:04:17;20.70;;;8.70;;
75628;SDS011;64213;46.452;16.994;2024-01-10T11:07:21;16.75;;;7.18;;
75628;SDS011;64213;46.452;16.994;2024-01-10T11:10:27;20.07;;;8.20;;
75628;SDS011;64213;46.452;16.994;2024-01-10T11:20:39;15.52;;;6.25;;
75628;SDS011;64213;46.452;16.994;2024-01-10T11:23:48;17.87;;;6.40;;
75628;SDS011;64213;46.452;16.994;2024-01-10T11:27:12;18.90;;;7.47;;
75628;SDS011;64213;46.452;16.994;2024-01-10T11:30:29;14.68;;;5.97;;
75628;SDS011;64213;46.452;16.994;2024-01-10T11:33:39;19.08;;;6.90;;
75628;SDS011;64213;46.452;16.994;2024-01-10T11:37:08;16.60;;;5.95;;
75628;SDS011;64213;46.452;16.994;2024-01-10T11:40:14;16.50;;;5.90;;
75628;SDS011;64213;46.452;16.994;2024-01-10T11:43:17;17.30;;;7.20;;
75628;SDS011;64213;46.452;16.994;2024-01-10T11:46:19;21.85;;;7.12;;
75628;SDS011;64213;46.452;16.994;2024-01-10T11:49:24;20.83;;;7.53;;
75628;SDS011;64213;46.452;16.994;2024-01-10T11:52:36;16.45;;;6.47;;
75628;SDS011;64213;46.452;16.994;2024-01-10T11:55:51;13.77;;;5.05;;
75628;SDS011;64213;46.452;16.994;2024-01-10T11:58:55;18.83;;;6.73;;
75628;SDS011;64213;46.452;16.994;2024-01-10T12:02:05;17.52;;;6.40;;
75628;SDS011;64213;46.452;16.994;2024-01-10T12:05:08;17.85;;;6.72;;
75628;SDS011;64213;46.452;16.994;2024-01-10T12:08:11;17.45;;;6.22;;
75628;SDS011;64213;46.452;16.994;2024-01-10T12:11:14;21.05;;;7.53;;
75628;SDS011;64213;46.452;16.994;2024-01-10T12:14:18;20.23;;;6.13;;
75628;SDS011;64213;46.452;16.994;2024-01-10T12:17:25;17.35;;;6.90;;
75628;SDS011;64213;46.452;16.994;2024-01-10T12:20:29;17.90;;;6.40;;
75628;SDS011;64213;46.452;16.994;2024-01-10T12:23:31;19.35;;;6.05;;
75628;SDS011;64213;46.452;16.994;2024-01-10T12:26:34;18.12;;;6.65;;
75628;SDS011;64213;46.452;16.994;2024-01-10T12:29:38;17.67;;;5.27;;
75628;SDS011;64213;46.452;16.994;2024-01-10T12:32:40;17.95;;;6.47;;
75628;SDS011;64213;46.452;16.994;2024-01-10T12:35:44;14.57;;;5.57;;
75628;SDS011;64213;46.452;16.994;2024-01-10T12:39:03;11.50;;;5.00;;
75628;SDS011;64213;46.452;16.994;2024-01-10T12:42:09;16.33;;;5.85;;
75628;SDS011;64213;46.452;16.994;2024-01-10T12:45:23;17.67;;;6.27;;
75628;SDS011;64213;46.452;16.994;2024-01-10T12:48:26;15.25;;;5.35;;
75628;SDS011;64213;46.452;16.994;2024-01-10T12:51:29;17.87;;;5.97;;
75628;SDS011;64213;46.452;16.994;2024-01-10T12:54:32;16.75;;;5.60;;
75628;SDS011;64213;46.452;16.994;2024-01-10T12:57:34;19.70;;;7.05;;
75628;SDS011;64213;46.452;16.994;2024-01-10T13:00:37;12.20;;;3.90;;
75628;SDS011;64213;46.452;16.994;2024-01-10T13:03:41;14.30;;;5.80;;
75628;SDS011;64213;46.452;16.994;2024-01-10T13:06:44;16.95;;;5.60;;
75628;SDS011;64213;46.452;16.994;2024-01-10T13:09:47;15.27;;;5.40;;
75628;SDS011;64213;46.452;16.994;2024-01-10T13:12:49;15.88;;;6.00;;
75628;SDS011;64213;46.452;16.994;2024-01-10T13:15:52;18.90;;;5.63;;
75628;SDS011;64213;46.452;16.994;2024-01-10T13:18:55;15.13;;;5.72;;
75628;SDS011;64213;46.452;16.994;2024-01-10T13:22:00;17.23;;;5.95;;
75628;SDS011;64213;46.452;16.994;2024-01-10T13:25:08;16.35;;;6.78;;
75628;SDS011;64213;46.452;16.994;2024-01-10T13:28:10;17.17;;;5.87;;
75628;SDS011;64213;46.452;16.994;2024-01-10T13:31:14;16.47;;;5.87;;
75628;SDS011;64213;46.452;16.994;2024-01-10T13:34:17;14.98;;;5.35;;
75628;SDS011;64213;46.452;16.994;2024-01-10T13:37:21;15.27;;;5.75;;
75628;SDS011;64213;46.452;16.994;2024-01-10T13:40:24;18.55;;;5.37;;
75628;SDS011;64213;46.452;16.994;2024-01-10T13:43:28;20.33;;;7.22;;
75628;SDS011;64213;46.452;16.994;2024-01-10T13:46:30;14.33;;;5.37;;
75628;SDS011;64213;46.452;16.994;2024-01-10T13:49:33;14.43;;;5.30;;
75628;SDS011;64213;46.452;16.994;2024-01-10T13:52:36;17.27;;;5.70;;
75628;SDS011;64213;46.452;16.994;2024-01-10T13:55:38;15.63;;;6.05;;
75628;SDS011;64213;46.452;16.994;2024-01-10T13:58:41;11.20;;;3.40;;
75628;SDS011;64213;46.452;16.994;2024-01-10T14:01:43;12.20;;;4.07;;
75628;SDS011;64213;46.452;16.994;2024-01-10T14:04:46;11.05;;;3.87;;
75628;SDS011;64213;46.452;16.994;2024-01-10T14:07:49;16.92;;;5.47;;
75628;SDS011;64213;46.452;16.994;2024-01-10T14:10:51;18.90;;;5.87;;
75628;SDS011;64213;46.452;16.994;2024-01-10T14:13:54;17.90;;;5.28;;
75628;SDS011;64213;46.452;16.994;2024-01-10T14:16:57;15.20;;;5.83;;
75628;SDS011;64213;46.452;16.994;2024-01-10T14:20:00;21.25;;;6.15;;
75628;SDS011;64213;46.452;16.994;2024-01-10T14:23:02;17.15;;;6.05;;
75628;SDS011;64213;46.452;16.994;2024-01-10T14:26:05;17.25;;;6.25;;
75628;SDS011;64213;46.452;16.994;2024-01-10T14:29:08;14.30;;;5.55;;
75628;SDS011;64213;46.452;16.994;2024-01-10T14:32:11;18.03;;;6.07;;
75628;SDS011;64213;46.452;16.994;2024-01-10T14:35:19;19.40;;;4.95;;
75628;SDS011;64213;46.452;16.994;2024-01-10T14:38:22;19.17;;;6.15;;
75628;SDS011;64213;46.452;16.994;2024-01-10T14:41:24;15.88;;;6.03;;
75628;SDS011;64213;46.452;16.994;2024-01-10T14:44:27;14.48;;;5.90;;
75628;SDS011;64213;46.452;16.994;2024-01-10T14:47:30;18.60;;;5.27;;
75628;SDS011;64213;46.452;16.994;2024-01-10T14:50:32;23.12;;;7.87;;
75628;SDS011;64213;46.452;16.994;2024-01-10T14:53:35;23.12;;;7.07;;
75628;SDS011;64213;46.452;16.994;2024-01-10T14:56:38;16.50;;;6.60;;
75628;SDS011;64213;46.452;16.994;2024-01-10T14:59:44;16.08;;;5.75;;
75628;SDS011;64213;46.452;16.994;2024-01-10T15:02:48;15.53;;;5.80;;
75628;SDS011;64213;46.452;16.994;2024-01-10T15:05:51;22.77;;;8.30;;
75628;SDS011;64213;46.452;16.994;2024-01-10T15:08:54;17.65;;;6.53;;
75628;SDS011;64213;46.452;16.994;2024-01-10T15:11:57;18.75;;;7.00;;
75628;SDS011;64213;46.452;16.994;2024-01-10T15:14:59;27.20;;;7.87;;
75628;SDS011;64213;46.452;16.994;2024-01-10T15:18:03;20.67;;;9.03;;
75628;SDS011;64213;46.452;16.994;2024-01-10T15:21:06;20.45;;;7.60;;
75628;SDS011;64213;46.452;16.994;2024-01-10T15:24:08;21.65;;;6.75;;
75628;SDS011;64213;46.452;16.994;2024-01-10T15:27:11;15.45;;;6.45;;
75628;SDS011;64213;46.452;16.994;2024-01-10T15:30:14;17.15;;;6.85;;
75628;SDS011;64213;46.452;16.994;2024-01-10T15:33:18;15.57;;;7.27;;
75628;SDS011;64213;46.452;16.994;2024-01-10T15:36:20;21.48;;;8.05;;
75628;SDS011;64213;46.452;16.994;2024-01-10T15:39:23;18.92;;;6.72;;
75628;SDS011;64213;46.452;16.994;2024-01-10T15:42:27;16.92;;;6.47;;
75628;SDS011;64213;46.452;16.994;2024-01-10T15:45:30;20.20;;;7.85;;
75628;SDS011;64213;46.452;16.994;2024-01-10T15:48:33;23.43;;;9.00;;
75628;SDS011;64213;46.452;16.994;2024-01-10T15:51:40;19.48;;;8.20;;
75628;SDS011;64213;46.452;16.994;2024-01-10T15:54:42;25.70;;;10.70;;
75628;SDS011;64213;46.452;16.994;2024-01-10T15:57:47;18.00;;;7.55;;
75628;SDS011;64213;46.452;16.994;2024-01-10T16:00:54;17.17;;;7.28;;
75628;SDS011;64213;46.452;16.994;2024-01-10T16:03:59;22.73;;;8.57;;
75628;SDS011;64213;46.452;16.994;2024-01-10T16:07:07;22.05;;;8.88;;
75628;SDS011;64213;46.452;16.994;2024-01-10T16:10:11;21.55;;;10.32;;
75628;SDS011;64213;46.452;16.994;2024-01-10T16:13:14;24.37;;;11.98;;
75628;SDS011;64213;46.452;16.994;2024-01-10T16:16:23;27.23;;;11.07;;
75628;SDS011;64213;46.452;16.994;2024-01-10T16:19:32;22.83;;;9.43;;
75628;SDS011;64213;46.452;16.994;2024-01-10T16:22:34;28.62;;;11.48;;
75628;SDS011;64213;46.452;16.994;2024-01-10T16:25:37;22.10;;;11.85;;
75628;SDS011;64213;46.452;16.994;2024-01-10T16:28:40;38.20;;;17.58;;
75628;SDS011;64213;46.452;16.994;2024-01-10T16:31:42;35.80;;;15.33;;
75628;SDS011;64213;46.452;16.994;2024-01-10T16:34:47;31.95;;;13.05;;
75628;SDS011;64213;46.452;16.994;2024-01-10T16:37:50;35.03;;;15.85;;
75628;SDS011;64213;46.452;16.994;2024-01-10T16:40:53;31.85;;;13.55;;
75628;SDS011;64213;46.452;16.994;2024-01-10T16:43:59;34.43;;;14.83;;
75628;SDS011;64213;46.452;16.994;2024-01-10T16:47:03;41.22;;;14.52;;
75628;SDS011;64213;46.452;16.994;2024-01-10T16:50:07;41.83;;;15.30;;
75628;SDS011;64213;46.452;16.994;2024-01-10T16:53:11;33.03;;;15.18;;
75628;SDS011;64213;46.452;16.994;2024-01-10T16:56:14;27.90;;;11.70;;
75628;SDS011;64213;46.452;16.994;2024-01-10T16:59:16;28.30;;;11.25;;
75628;SDS011;64213;46.452;16.994;2024-01-10T17:02:19;35.97;;;15.48;;
75628;SDS011;64213;46.452;16.994;2024-01-10T17:05:26;42.53;;;15.60;;
75628;SDS011;64213;46.452;16.994;2024-01-10T17:08:43;45.78;;;16.15;;
75628;SDS011;64213;46.452;16.994;2024-01-10T17:11:48;21.43;;;9.23;;
75628;SDS011;64213;46.452;16.994;2024-01-10T17:14:51;27.35;;;13.25;;
75628;SDS011;64213;46.452;16.994;2024-01-10T17:17:54;33.80;;;15.50;;
75628;SDS011;64213;46.452;16.994;2024-01-10T17:20:59;35.72;;;14.75;;
75628;SDS011;64213;46.452;16.994;2024-01-10T17:24:03;42.77;;;15.87;;
75628;SDS011;64213;46.452;16.994;2024-01-10T17:27:05;42.38;;;19.20;;
75628;SDS011;64213;46.452;16.994;2024-01-10T17:30:10;52.35;;;21.77;;
75628;SDS011;64213;46.452;16.994;2024-01-10T17:33:14;28.73;;;12.05;;
75628;SDS011;64213;46.452;16.994;2024-01-10T17:36:19;26.98;;;12.52;;
75628;SDS011;64213;46.452;16.994;2024-01-10T17:39:23;31.50;;;14.63;;
75628;SDS011;64213;46.452;16.994;2024-01-10T17:42:28;29.65;;;11.70;;
75628;SDS011;64213;46.452;16.994;2024-01-10T17:45:32;25.35;;;10.80;;
75628;SDS011;64213;46.452;16.994;2024-01-10T17:48:34;25.20;;;8.43;;
75628;SDS011;64213;46.452;16.994;2024-01-10T17:51:37;25.40;;;10.03;;
75628;SDS011;64213;46.452;16.994;2024-01-10T17:54:43;25.55;;;11.60;;
75628;SDS011;64213;46.452;16.994;2024-01-10T17:57:46;30.67;;;12.52;;
75628;SDS011;64213;46.452;16.994;2024-01-10T18:00:50;28.35;;;12.27;;